createdAt,value
2023-05-12T00:00:25.864Z,3.47
2023-05-12T00:03:15.392Z,3.40
2023-05-12T00:06:04.506Z,3.67
2023-05-12T00:08:52.504Z,3.47
2023-05-12T00:11:40.546Z,4.00
2023-05-12T00:14:28.754Z,3.67
2023-05-12T00:17:16.550Z,3.45
2023-05-12T00:20:06.662Z,4.22
2023-05-12T00:22:54.763Z,3.47
2023-05-12T00:25:42.880Z,3.67
2023-05-12T00:28:30.652Z,4.70
2023-05-12T00:31:18.725Z,4.53
2023-05-12T00:34:06.720Z,3.78
2023-05-12T00:36:56.101Z,3.50
2023-05-12T00:39:43.820Z,3.47
2023-05-12T00:42:31.780Z,3.40
2023-05-12T00:45:20.550Z,4.03
2023-05-12T00:48:08.790Z,4.60
2023-05-12T00:50:57.197Z,4.38
2023-05-12T00:53:50.212Z,3.67
2023-05-12T00:56:39.626Z,3.88
2023-05-12T00:59:28.200Z,5.00
2023-05-12T01:02:16.019Z,3.92
2023-05-12T01:05:04.908Z,4.32
2023-05-12T01:07:53.387Z,3.85
2023-05-12T01:10:47.490Z,3.78
2023-05-12T01:13:36.139Z,3.60
2023-05-12T01:16:27.372Z,4.97
2023-05-12T01:19:31.247Z,4.00
2023-05-12T01:22:19.873Z,4.18
2023-05-12T01:25:11.758Z,4.70
2023-05-12T01:28:02.239Z,4.30
2023-05-12T01:30:50.558Z,4.20
2023-05-12T01:33:39.776Z,3.72
2023-05-12T01:36:27.817Z,3.63
2023-05-12T01:39:15.703Z,3.80
2023-05-12T01:42:03.780Z,4.13
2023-05-12T01:44:53.199Z,4.35
2023-05-12T01:47:41.677Z,3.40
2023-05-12T01:50:30.022Z,3.92
2023-05-12T01:53:18.037Z,2.80
2023-05-12T01:56:06.199Z,4.03
2023-05-12T01:58:53.999Z,3.47
2023-05-12T02:01:43.445Z,3.10
2023-05-12T02:04:31.697Z,3.83
2023-05-12T02:07:19.539Z,2.83
2023-05-12T02:10:08.713Z,4.93
2023-05-12T02:12:57.079Z,3.08
2023-05-12T02:15:44.806Z,2.60
2023-05-12T02:18:34.067Z,3.40
2023-05-12T02:21:21.826Z,2.92
2023-05-12T02:24:09.923Z,3.20
2023-05-12T02:26:57.836Z,4.30
2023-05-12T02:29:45.920Z,4.72
2023-05-12T02:32:34.056Z,4.82
2023-05-12T02:35:23.396Z,3.92
2023-05-12T02:38:11.302Z,5.38
2023-05-12T02:40:59.206Z,4.93
2023-05-12T02:43:47.113Z,4.45
2023-05-12T02:46:34.978Z,4.43
2023-05-12T02:49:23.003Z,5.05
2023-05-12T02:52:12.364Z,5.90
2023-05-12T02:55:00.227Z,4.30
2023-05-12T02:57:48.163Z,5.38
2023-05-12T03:00:36.253Z,5.20
2023-05-12T03:03:24.230Z,4.65
2023-05-12T03:06:14.693Z,3.90
2023-05-12T03:09:04.272Z,3.78
2023-05-12T03:11:52.216Z,3.35
2023-05-12T03:14:40.120Z,3.17
2023-05-12T03:17:28.282Z,3.15
2023-05-12T03:20:19.267Z,5.00
2023-05-12T03:23:07.342Z,3.42
2023-05-12T03:25:56.728Z,3.35
2023-05-12T03:28:44.593Z,2.88
2023-05-12T03:31:32.417Z,3.58
2023-05-12T03:34:20.381Z,3.42
2023-05-12T03:37:08.059Z,3.33
2023-05-12T03:39:56.517Z,2.88
2023-05-12T03:42:46.370Z,3.38
2023-05-12T03:45:34.509Z,3.30
2023-05-12T03:48:22.431Z,3.75
2023-05-12T03:51:10.178Z,3.33
2023-05-12T03:53:58.152Z,3.08
2023-05-12T03:56:46.256Z,4.13
2023-05-12T03:59:35.647Z,3.20
2023-05-12T04:02:23.525Z,3.40
2023-05-12T04:05:11.982Z,3.22
2023-05-12T04:07:59.811Z,3.30
2023-05-12T04:10:47.745Z,3.60
2023-05-12T04:13:38.737Z,3.47
2023-05-12T04:16:28.310Z,3.33
2023-05-12T04:19:16.054Z,3.63
2023-05-12T04:22:04.274Z,3.08
2023-05-12T04:24:52.122Z,4.82
2023-05-12T04:27:39.931Z,5.00
2023-05-12T04:30:30.224Z,5.13
2023-05-12T04:33:19.422Z,4.10
2023-05-12T04:36:07.726Z,4.47
2023-05-12T04:38:56.237Z,4.93
2023-05-12T04:41:44.158Z,3.92
2023-05-12T04:44:34.016Z,4.03
2023-05-12T04:47:23.881Z,3.88
2023-05-12T04:50:13.880Z,4.50
2023-05-12T04:53:01.934Z,3.90
2023-05-12T04:55:50.211Z,5.00
2023-05-12T04:58:38.388Z,3.67
2023-05-12T05:01:26.708Z,3.78
2023-05-12T05:04:14.733Z,4.20
2023-05-12T05:07:04.149Z,3.72
2023-05-12T05:09:53.818Z,3.85
2023-05-12T05:12:41.657Z,3.80
2023-05-12T05:15:29.590Z,4.13
2023-05-12T05:18:17.986Z,4.38
2023-05-12T05:21:05.820Z,4.30
2023-05-12T05:23:54.822Z,4.65
2023-05-12T05:26:42.603Z,4.30
2023-05-12T05:29:30.257Z,4.72
2023-05-12T05:32:18.269Z,4.25
2023-05-12T05:35:06.902Z,4.45
2023-05-12T05:37:56.121Z,4.40
2023-05-12T05:40:53.490Z,4.22
2023-05-12T05:43:41.777Z,4.13
2023-05-12T05:46:29.642Z,4.40
2023-05-12T05:49:17.593Z,4.25
2023-05-12T05:52:05.950Z,4.30
2023-05-12T05:54:53.837Z,4.00
2023-05-12T05:57:43.141Z,5.20
2023-05-12T06:00:30.903Z,5.95
2023-05-12T06:03:19.180Z,4.07
2023-05-12T06:06:07.102Z,5.10
2023-05-12T06:08:56.096Z,3.80
2023-05-12T06:11:43.952Z,3.90
2023-05-12T06:14:33.300Z,4.22
2023-05-12T06:17:21.193Z,5.07
2023-05-12T06:20:10.295Z,4.75
2023-05-12T06:22:58.265Z,5.20
2023-05-12T06:25:46.181Z,4.25
2023-05-12T06:28:34.265Z,4.95
2023-05-12T06:31:23.355Z,5.40
2023-05-12T06:34:12.114Z,5.78
2023-05-12T06:36:59.886Z,5.60
2023-05-12T06:39:47.964Z,4.65
2023-05-12T06:42:35.970Z,5.18
2023-05-12T06:45:24.359Z,5.40
2023-05-12T06:48:13.605Z,4.63
2023-05-12T06:51:01.819Z,4.63
2023-05-12T06:53:49.900Z,3.70
2023-05-12T06:56:37.697Z,4.82
2023-05-12T06:59:25.862Z,3.20
2023-05-12T07:02:13.694Z,4.70
2023-05-12T07:05:03.109Z,5.43
2023-05-12T07:07:50.795Z,4.80
2023-05-12T07:10:39.963Z,3.53
2023-05-12T07:13:28.025Z,3.63
2023-05-12T07:16:15.994Z,3.80
2023-05-12T07:19:05.889Z,3.78
2023-05-12T07:21:55.145Z,3.85
2023-05-12T07:24:43.389Z,3.90
2023-05-12T07:27:31.647Z,3.97
2023-05-12T07:30:19.970Z,4.88
2023-05-12T07:33:08.542Z,4.13
2023-05-12T07:35:56.693Z,4.30
2023-05-12T07:38:46.092Z,4.57
2023-05-12T07:41:39.027Z,4.72
2023-05-12T07:47:15.242Z,4.50
2023-05-12T07:50:03.472Z,6.72
2023-05-12T07:52:52.034Z,4.82
2023-05-12T07:55:41.250Z,5.30
2023-05-12T07:58:29.194Z,4.85
2023-05-12T08:01:18.167Z,5.68
2023-05-12T08:04:06.745Z,5.10
2023-05-12T08:06:54.957Z,5.75
2023-05-12T08:09:42.780Z,6.30
2023-05-12T08:12:32.207Z,6.15
2023-05-12T08:15:20.215Z,6.05
2023-05-12T08:18:08.229Z,5.97
2023-05-12T08:20:56.747Z,7.47
2023-05-12T08:23:44.756Z,7.10
2023-05-12T08:26:32.720Z,12.52
2023-05-12T08:29:22.131Z,6.60
2023-05-12T08:32:10.172Z,5.03
2023-05-12T08:34:58.172Z,5.53
2023-05-12T08:37:46.226Z,12.45
2023-05-12T08:40:42.669Z,13.93
2023-05-12T08:43:39.229Z,11.45
2023-05-12T08:46:28.640Z,11.45
2023-05-12T08:49:21.907Z,9.55
2023-05-12T08:52:10.409Z,11.35
2023-05-12T08:55:00.100Z,8.85
2023-05-12T08:57:49.884Z,9.40
2023-05-12T09:00:39.806Z,8.80
2023-05-12T09:03:30.098Z,11.70
2023-05-12T09:06:18.845Z,9.60
2023-05-12T09:09:07.875Z,7.68
2023-05-12T09:11:59.469Z,7.72
2023-05-12T09:14:49.411Z,6.47
2023-05-12T09:17:37.555Z,5.55
2023-05-12T09:20:31.880Z,5.75
2023-05-12T09:23:22.073Z,6.20
2023-05-12T09:26:09.674Z,6.63
2023-05-12T09:29:06.528Z,4.65
2023-05-12T09:31:56.010Z,4.25
2023-05-12T09:34:45.348Z,3.83
2023-05-12T09:37:35.916Z,4.68
2023-05-12T09:40:23.824Z,5.05
2023-05-12T09:43:13.736Z,4.72
2023-05-12T09:46:07.163Z,3.90
2023-05-12T09:48:57.619Z,4.17
2023-05-12T09:51:45.644Z,3.60
2023-05-12T09:54:42.054Z,3.80
2023-05-12T09:57:30.699Z,3.50
2023-05-12T10:00:34.642Z,3.65
2023-05-12T10:03:30.630Z,3.92
2023-05-12T10:06:25.897Z,3.90
2023-05-12T10:09:20.561Z,3.33
2023-05-12T10:12:10.527Z,2.53
2023-05-12T10:14:59.138Z,2.75
2023-05-12T10:17:47.578Z,4.68
2023-05-12T10:20:36.309Z,5.10
2023-05-12T10:23:25.677Z,4.25
2023-05-12T10:26:14.128Z,3.95
2023-05-12T10:29:03.392Z,5.57
2023-05-12T10:31:51.595Z,6.20
2023-05-12T10:34:41.927Z,4.07
2023-05-12T10:37:30.969Z,3.22
2023-05-12T10:40:26.659Z,2.90
2023-05-12T10:43:24.258Z,3.08
2023-05-12T10:46:19.730Z,2.38
2023-05-12T10:49:12.889Z,2.35
2023-05-12T10:52:01.887Z,2.20
2023-05-12T10:54:49.818Z,2.30
2023-05-12T10:57:50.547Z,2.58
2023-05-12T11:00:47.053Z,2.15
2023-05-12T11:03:38.248Z,3.40
2023-05-12T11:06:30.579Z,3.45
2023-05-12T11:09:19.977Z,3.30
2023-05-12T11:12:09.408Z,3.47
2023-05-12T11:14:57.375Z,3.38
2023-05-12T11:17:45.188Z,3.72
2023-05-12T11:20:34.616Z,4.10
2023-05-12T11:23:27.339Z,3.60
2023-05-12T11:26:19.224Z,3.22
2023-05-12T11:29:09.194Z,3.17
2023-05-12T11:31:57.371Z,2.88
2023-05-12T11:34:45.444Z,3.10
2023-05-12T11:37:38.815Z,2.95
2023-05-12T11:40:26.845Z,3.42
2023-05-12T11:43:15.727Z,3.70
2023-05-12T11:46:03.750Z,3.10
2023-05-12T11:48:56.862Z,3.10
2023-05-12T11:51:45.186Z,3.17
2023-05-12T11:54:34.118Z,3.17
2023-05-12T11:57:28.580Z,3.38
2023-05-12T12:00:17.286Z,3.47
2023-05-12T12:03:10.162Z,3.15
2023-05-12T12:06:02.858Z,3.20
2023-05-12T12:08:55.109Z,3.25
2023-05-12T12:11:43.972Z,3.22
2023-05-12T12:14:33.733Z,4.00
2023-05-12T12:17:28.443Z,4.97
2023-05-12T12:20:17.852Z,3.53
2023-05-12T12:23:05.740Z,3.13
2023-05-12T12:25:53.534Z,3.00
2023-05-12T12:28:42.952Z,3.05
2023-05-12T12:31:30.607Z,3.00
2023-05-12T12:34:19.174Z,2.95
2023-05-12T12:37:07.810Z,2.40
2023-05-12T12:39:55.739Z,2.88
2023-05-12T12:42:43.285Z,2.95
2023-05-12T12:45:32.798Z,2.85
2023-05-12T12:48:20.545Z,2.47
2023-05-12T12:51:08.621Z,2.70
2023-05-12T12:53:56.323Z,3.50
2023-05-12T12:56:45.171Z,3.00
2023-05-12T12:59:33.187Z,2.85
2023-05-12T13:02:22.553Z,2.92
2023-05-12T13:05:11.012Z,2.25
2023-05-12T13:07:58.720Z,3.42
2023-05-12T13:10:46.626Z,2.85
2023-05-12T13:13:34.840Z,2.47
2023-05-12T13:16:23.231Z,2.60
2023-05-12T13:19:12.910Z,3.40
2023-05-12T13:22:00.706Z,3.47
2023-05-12T13:24:49.059Z,2.78
2023-05-12T13:27:36.947Z,3.05
2023-05-12T13:30:25.185Z,3.47
2023-05-12T13:33:13.696Z,3.10
2023-05-12T13:36:02.819Z,2.85
2023-05-12T13:38:50.469Z,2.80
2023-05-12T13:41:38.417Z,2.85
2023-05-12T13:44:26.232Z,2.80
2023-05-12T13:47:14.784Z,3.10
2023-05-12T13:50:02.970Z,3.10
2023-05-12T13:52:52.768Z,3.17
2023-05-12T13:55:41.363Z,3.20
2023-05-12T13:58:29.107Z,2.75
2023-05-12T14:01:17.383Z,3.55
2023-05-12T14:04:05.088Z,2.90
2023-05-12T14:06:53.882Z,2.60
2023-05-12T14:09:43.112Z,3.70
2023-05-12T14:12:31.167Z,3.08
2023-05-12T14:15:32.220Z,3.67
2023-05-12T14:18:26.945Z,4.70
2023-05-12T14:21:15.198Z,4.40
2023-05-12T14:24:05.416Z,4.05
2023-05-12T14:26:54.859Z,4.75
2023-05-12T14:29:42.830Z,4.40
2023-05-12T14:32:30.765Z,4.63
2023-05-12T14:35:18.509Z,5.35
2023-05-12T14:38:06.661Z,4.45
2023-05-12T14:40:54.255Z,4.20
2023-05-12T14:43:43.622Z,4.00
2023-05-12T14:46:31.473Z,5.75
2023-05-12T14:49:21.572Z,3.95
2023-05-12T14:52:09.292Z,3.90
2023-05-12T14:54:57.189Z,4.72
2023-05-12T14:57:47.884Z,7.55
2023-05-12T15:00:37.303Z,6.88
2023-05-12T15:03:25.222Z,8.18
2023-05-12T15:06:13.813Z,6.65
2023-05-12T15:09:02.535Z,6.20
2023-05-12T15:11:51.503Z,5.90
2023-05-12T15:14:39.727Z,3.20
2023-05-12T15:17:29.217Z,3.40
2023-05-12T15:20:17.508Z,2.58
2023-05-12T15:23:05.264Z,3.08
2023-05-12T15:25:53.345Z,3.08
2023-05-12T15:28:41.438Z,3.45
2023-05-12T15:31:31.445Z,4.78
2023-05-12T15:34:20.996Z,3.20
2023-05-12T15:37:08.638Z,3.70
2023-05-12T15:39:56.605Z,3.03
2023-05-12T15:42:44.634Z,2.85
2023-05-12T15:45:32.755Z,2.90
2023-05-12T15:48:20.791Z,4.28
2023-05-12T15:51:10.253Z,3.20
2023-05-12T15:53:58.337Z,3.30
2023-05-12T15:56:49.110Z,3.10
2023-05-12T15:59:37.577Z,3.00
2023-05-12T16:02:25.576Z,3.30
2023-05-12T16:05:16.269Z,3.17
2023-05-12T16:08:05.594Z,3.70
2023-05-12T16:10:53.494Z,3.42
2023-05-12T16:13:42.514Z,3.38
2023-05-12T16:16:31.057Z,3.45
2023-05-12T16:19:19.557Z,3.70
2023-05-12T16:22:07.383Z,3.90
2023-05-12T16:24:57.519Z,4.50
2023-05-12T16:27:45.808Z,9.20
2023-05-12T16:30:33.735Z,7.30
2023-05-12T16:33:21.672Z,6.63
2023-05-12T16:36:09.824Z,7.10
2023-05-12T16:38:58.095Z,7.53
2023-05-12T16:41:47.397Z,8.75
2023-05-12T16:44:35.111Z,9.65
2023-05-12T16:47:22.980Z,5.60
2023-05-12T16:50:11.783Z,5.07
2023-05-12T16:52:59.514Z,4.80
2023-05-12T16:55:47.430Z,7.05
2023-05-12T16:58:36.814Z,3.97
2023-05-12T17:01:24.929Z,4.55
2023-05-12T17:04:12.994Z,3.15
2023-05-12T17:07:01.219Z,3.03
2023-05-12T17:09:48.949Z,2.60
2023-05-12T17:12:37.672Z,2.63
2023-05-12T17:15:27.265Z,2.53
2023-05-12T17:18:15.447Z,3.13
2023-05-12T17:21:03.543Z,2.55
2023-05-12T17:23:51.700Z,2.40
2023-05-12T17:26:39.389Z,3.60
2023-05-12T17:29:27.360Z,3.60
2023-05-12T17:32:17.003Z,5.07
2023-05-12T17:35:05.240Z,3.40
2023-05-12T17:37:55.302Z,3.05
2023-05-12T17:40:43.215Z,2.22
2023-05-12T17:43:31.622Z,2.40
2023-05-12T17:46:19.281Z,2.53
2023-05-12T17:49:08.720Z,2.25
2023-05-12T17:51:56.901Z,2.63
2023-05-12T17:54:44.746Z,2.58
2023-05-12T17:57:32.742Z,2.28
2023-05-12T18:00:21.070Z,1.95
2023-05-12T18:03:09.309Z,2.25
2023-05-12T18:05:58.603Z,2.00
2023-05-12T18:08:46.725Z,2.50
2023-05-12T18:11:34.478Z,3.63
2023-05-12T18:14:22.436Z,3.70
2023-05-12T18:17:10.559Z,3.78
2023-05-12T18:19:58.395Z,4.53
2023-05-12T18:22:48.298Z,5.35
2023-05-12T18:25:35.974Z,3.38
2023-05-12T18:28:23.948Z,5.05
2023-05-12T18:34:02.695Z,5.68
2023-05-12T18:36:50.775Z,5.70
2023-05-12T18:39:40.301Z,4.93
2023-05-12T18:42:29.028Z,4.38
2023-05-12T18:45:18.546Z,4.13
2023-05-12T18:48:07.108Z,3.83
2023-05-12T18:50:56.286Z,6.45
2023-05-12T18:53:44.181Z,5.60
2023-05-12T18:56:33.607Z,5.80
2023-05-12T18:59:21.485Z,6.65
2023-05-12T19:02:09.659Z,6.70
2023-05-12T19:04:57.459Z,7.45
2023-05-12T19:07:45.311Z,8.35
2023-05-12T19:10:33.274Z,9.00
2023-05-12T19:13:22.557Z,8.73
2023-05-12T19:16:10.521Z,9.85
2023-05-12T19:18:58.417Z,12.88
2023-05-12T19:21:46.679Z,19.50
2023-05-12T19:24:35.098Z,15.48
2023-05-12T19:27:22.816Z,10.70
2023-05-12T19:30:13.932Z,6.30
2023-05-12T19:33:02.047Z,6.00
2023-05-12T19:35:50.274Z,5.47
2023-05-12T19:38:43.492Z,5.07
2023-05-12T19:44:19.107Z,3.50
2023-05-12T19:47:12.603Z,5.00
2023-05-12T19:50:00.906Z,2.97
2023-05-12T19:52:49.850Z,2.38
2023-05-12T19:55:40.102Z,2.50
2023-05-12T19:58:28.259Z,2.53
2023-05-12T20:01:16.652Z,2.50
2023-05-12T20:04:05.959Z,2.60
2023-05-12T20:06:54.506Z,2.63
2023-05-12T20:09:46.003Z,2.72
2023-05-12T20:12:34.034Z,2.55
2023-05-12T20:15:22.527Z,3.00
2023-05-12T20:18:11.630Z,2.85
2023-05-12T20:21:01.079Z,3.05
2023-05-12T20:23:49.005Z,3.28
2023-05-12T20:26:37.889Z,3.10
2023-05-12T20:29:29.945Z,2.90
2023-05-12T20:32:17.869Z,3.10
2023-05-12T20:35:07.042Z,2.95
2023-05-12T20:37:58.886Z,2.90
2023-05-12T20:40:47.816Z,3.33
2023-05-12T20:43:36.938Z,3.13
2023-05-12T20:46:25.023Z,3.65
2023-05-12T20:49:13.337Z,3.30
2023-05-12T20:52:01.183Z,3.13
2023-05-12T20:54:56.489Z,3.00
2023-05-12T20:57:44.640Z,3.10
2023-05-12T21:00:35.648Z,3.00
2023-05-12T21:03:24.415Z,2.67
2023-05-12T21:06:13.126Z,2.53
2023-05-12T21:09:05.235Z,2.60
2023-05-12T21:11:56.833Z,2.13
2023-05-12T21:14:46.390Z,2.30
2023-05-12T21:17:34.260Z,2.42
2023-05-12T21:20:24.008Z,2.42
2023-05-12T21:23:13.694Z,2.30
2023-05-12T21:26:04.718Z,2.65
2023-05-12T21:28:53.999Z,2.60
2023-05-12T21:31:42.727Z,2.75
2023-05-12T21:34:33.366Z,2.80
2023-05-12T21:37:21.954Z,2.42
2023-05-12T21:40:12.515Z,2.50
2023-05-12T21:43:00.456Z,2.20
2023-05-12T21:45:50.452Z,2.17
2023-05-12T21:48:38.368Z,2.17
2023-05-12T21:51:26.826Z,2.67
2023-05-12T21:54:14.654Z,3.65
2023-05-12T21:57:03.170Z,3.42
2023-05-12T21:59:52.050Z,3.80
2023-05-12T22:02:41.231Z,3.70
2023-05-12T22:05:29.829Z,3.67
2023-05-12T22:08:20.489Z,3.50
2023-05-12T22:11:09.748Z,2.90
2023-05-12T22:13:59.864Z,2.75
2023-05-12T22:16:48.399Z,2.88
2023-05-12T22:19:38.367Z,2.47
2023-05-12T22:22:28.347Z,2.72
2023-05-12T22:25:16.889Z,2.70
2023-05-12T22:28:07.151Z,2.80
2023-05-12T22:30:55.165Z,2.85
2023-05-12T22:33:42.991Z,2.30
2023-05-12T22:36:32.436Z,2.35
2023-05-12T22:39:20.304Z,2.40
2023-05-12T22:42:10.966Z,2.65
2023-05-12T22:44:58.709Z,2.55
2023-05-12T22:47:46.784Z,2.80
2023-05-12T22:50:34.484Z,2.88
2023-05-12T22:53:23.498Z,2.97
2023-05-12T22:56:11.308Z,3.05
2023-05-12T22:58:59.149Z,2.40
2023-05-12T23:01:47.204Z,2.97
2023-05-12T23:04:35.194Z,2.55
2023-05-12T23:07:23.204Z,2.10
2023-05-12T23:10:13.282Z,2.15
2023-05-12T23:13:02.286Z,2.25
2023-05-12T23:15:50.106Z,2.25
2023-05-12T23:18:38.010Z,2.17
2023-05-12T23:22:15.936Z,2.30
2023-05-12T23:25:11.881Z,2.70
2023-05-12T23:27:59.566Z,2.38
2023-05-12T23:30:47.566Z,2.45
2023-05-12T23:33:35.770Z,3.20
2023-05-12T23:36:23.716Z,2.65
2023-05-12T23:39:11.515Z,2.10
2023-05-12T23:42:01.696Z,2.55
2023-05-12T23:44:49.694Z,2.60
2023-05-12T23:47:37.690Z,2.60
2023-05-12T23:50:25.866Z,2.30
2023-05-12T23:53:13.566Z,2.25
2023-05-12T23:56:02.504Z,2.83
2023-05-12T23:58:52.003Z,2.22
